createdAt,value
2019-05-07T00:03:08.057Z,83.02
2019-05-07T00:05:39.030Z,88.82
2019-05-07T00:08:08.390Z,86.15
2019-05-07T00:10:37.714Z,93.13
2019-05-07T00:13:19.687Z,93.03
2019-05-07T00:15:49.009Z,93.62
2019-05-07T00:18:18.347Z,94.52
2019-05-07T00:20:47.695Z,96.65
2019-05-07T00:23:17.015Z,96.86
2019-05-07T00:25:58.684Z,96.98
2019-05-07T00:28:28.029Z,97.25
2019-05-07T00:30:57.374Z,99.13
2019-05-07T00:33:26.719Z,100.00
2019-05-07T00:39:45.070Z,100.00
2019-05-07T00:45:42.626Z,98.41
2019-05-07T00:51:45.786Z,99.40
2019-05-07T00:54:15.194Z,100.00
2019-05-07T00:56:44.545Z,100.00
2019-05-07T00:59:13.891Z,100.00
2019-05-07T01:01:43.418Z,100.00
2019-05-07T01:04:12.769Z,100.00
2019-05-07T01:06:42.491Z,100.00
2019-05-07T01:09:18.365Z,100.00
2019-05-07T01:11:47.707Z,100.00
2019-05-07T01:14:17.043Z,100.00
2019-05-07T01:16:52.963Z,100.00
2019-05-07T01:19:28.656Z,100.00
2019-05-07T01:21:58.014Z,100.00
2019-05-07T01:24:27.356Z,100.00
2019-05-07T01:26:56.697Z,100.00
2019-05-07T01:29:26.380Z,100.00
2019-05-07T01:32:14.896Z,100.00
2019-05-07T01:35:03.374Z,100.00
2019-05-07T01:37:32.728Z,100.00
2019-05-07T01:40:03.094Z,100.00
2019-05-07T01:42:52.995Z,100.00
2019-05-07T01:45:42.232Z,100.00
2019-05-07T01:48:08.551Z,100.00
2019-05-07T01:50:38.056Z,100.00
2019-05-07T01:53:07.395Z,100.00
2019-05-07T01:55:36.748Z,100.00
2019-05-07T01:58:06.079Z,100.00
2019-05-07T02:00:35.650Z,100.00
2019-05-07T02:03:24.486Z,100.00
2019-05-07T02:06:13.260Z,100.00
2019-05-07T02:09:02.357Z,100.00
2019-05-07T02:11:52.767Z,100.00
2019-05-07T02:14:42.259Z,100.00
2019-05-07T02:17:17.749Z,100.00
2019-05-07T02:19:47.087Z,100.00
2019-05-07T02:22:16.516Z,100.00
2019-05-07T02:24:45.868Z,100.00
2019-05-07T02:27:15.218Z,100.00
2019-05-07T02:29:44.555Z,100.00
2019-05-07T02:32:13.909Z,100.00
2019-05-07T02:34:44.159Z,100.00
2019-05-07T02:40:44.133Z,100.00
2019-05-07T02:43:14.222Z,100.00
2019-05-07T02:46:25.575Z,100.00
2019-05-07T02:49:05.511Z,100.00
2019-05-07T02:51:53.988Z,100.00
2019-05-07T02:57:23.812Z,100.00
2019-05-07T03:00:04.022Z,100.00
2019-05-07T03:02:36.838Z,100.00
2019-05-07T03:08:08.514Z,100.00
2019-05-07T03:10:37.843Z,100.00
2019-05-07T03:13:07.184Z,100.00
2019-05-07T03:15:36.548Z,100.00
2019-05-07T03:18:06.113Z,100.00
2019-05-07T03:21:15.297Z,100.00
2019-05-07T03:24:04.010Z,100.00
2019-05-07T03:32:28.726Z,100.00
2019-05-07T03:35:17.289Z,100.00
2019-05-07T03:37:46.689Z,100.00
2019-05-07T03:40:16.376Z,100.00
2019-05-07T03:42:45.715Z,100.00
2019-05-07T03:50:52.909Z,100.00
2019-05-07T03:53:43.520Z,100.00
2019-05-07T03:56:18.068Z,100.00
2019-05-07T03:58:47.412Z,100.00
2019-05-07T04:01:16.762Z,100.00
2019-05-07T04:03:46.117Z,100.00
2019-05-07T04:06:15.450Z,100.00
2019-05-07T04:08:44.792Z,100.00
2019-05-07T04:11:14.307Z,100.00
2019-05-07T04:13:44.248Z,100.00
2019-05-07T04:16:20.230Z,100.00
2019-05-07T04:18:52.819Z,100.00
2019-05-07T04:21:43.302Z,100.00
2019-05-07T04:29:53.402Z,100.00
2019-05-07T04:36:14.217Z,100.00
2019-05-07T04:38:48.490Z,100.00
2019-05-07T04:41:17.843Z,100.00
2019-05-07T04:44:06.521Z,100.00
2019-05-07T04:46:35.874Z,100.00
2019-05-07T04:49:05.284Z,100.00
2019-05-07T04:51:53.750Z,100.00
2019-05-07T04:54:23.830Z,100.00
2019-05-07T04:56:59.798Z,100.00
2019-05-07T04:59:29.141Z,100.00
2019-05-07T05:02:00.142Z,100.00
2019-05-07T05:04:34.045Z,100.00
2019-05-07T05:07:02.639Z,100.00
2019-05-07T05:09:32.881Z,100.00
2019-05-07T05:12:02.915Z,100.00
2019-05-07T05:14:33.869Z,100.00
2019-05-07T05:17:03.516Z,100.00
2019-05-07T05:19:32.796Z,100.00
2019-05-07T05:22:03.793Z,100.00
2019-05-07T05:24:34.700Z,100.00
2019-05-07T05:27:04.119Z,100.00
2019-05-07T05:29:35.238Z,100.00
2019-05-07T05:32:04.853Z,100.00
2019-05-07T05:34:34.180Z,100.00
2019-05-07T05:37:03.510Z,100.00
2019-05-07T05:39:32.872Z,100.00
2019-05-07T05:42:12.827Z,100.00
2019-05-07T05:44:42.187Z,100.00
2019-05-07T05:47:12.027Z,100.00
2019-05-07T05:49:42.866Z,100.00
2019-05-07T05:52:13.925Z,100.00
2019-05-07T05:54:44.901Z,98.46
2019-05-07T05:57:18.546Z,99.99
2019-05-07T05:59:55.670Z,97.65
2019-05-07T06:02:44.034Z,96.83
2019-05-07T06:05:34.380Z,96.94
2019-05-07T06:08:20.606Z,97.57
2019-05-07T06:10:51.954Z,94.94
2019-05-07T06:13:23.181Z,97.43
2019-05-07T06:15:56.919Z,93.52
2019-05-07T06:18:42.940Z,90.58
2019-05-07T06:21:14.556Z,90.10
2019-05-07T06:23:57.377Z,90.29
2019-05-07T06:26:26.765Z,90.02
2019-05-07T06:28:56.042Z,91.18
2019-05-07T06:31:25.434Z,91.15
2019-05-07T06:33:54.955Z,90.15
2019-05-07T06:36:24.283Z,89.46
2019-05-07T06:38:55.261Z,89.46
2019-05-07T06:41:42.445Z,88.89
2019-05-07T06:44:13.421Z,85.35
2019-05-07T06:46:42.750Z,86.99
2019-05-07T06:49:12.699Z,86.18
2019-05-07T06:51:42.169Z,84.66
2019-05-07T06:54:12.990Z,84.17
2019-05-07T06:56:42.694Z,88.48
2019-05-07T06:59:14.203Z,85.95
2019-05-07T07:01:47.652Z,85.14
2019-05-07T07:04:18.615Z,87.91
2019-05-07T07:06:49.601Z,86.57
2019-05-07T07:09:26.244Z,86.24
2019-05-07T07:12:03.229Z,85.25
2019-05-07T07:14:33.303Z,84.85
2019-05-07T07:17:02.706Z,79.73
2019-05-07T07:19:34.202Z,81.91
2019-05-07T07:22:03.067Z,78.44
2019-05-07T07:24:32.992Z,78.73
2019-05-07T07:27:02.535Z,77.18
2019-05-07T07:29:44.980Z,73.77
2019-05-07T07:32:15.174Z,74.73
2019-05-07T07:34:49.237Z,74.71
2019-05-07T07:37:23.184Z,76.48
2019-05-07T07:39:54.160Z,76.71
2019-05-07T07:42:23.504Z,72.44
2019-05-07T07:44:54.804Z,75.42
2019-05-07T07:47:24.150Z,74.00
2019-05-07T07:49:53.484Z,72.83
2019-05-07T07:52:23.053Z,70.44
2019-05-07T07:54:52.995Z,75.60
2019-05-07T07:57:42.775Z,74.76
2019-05-07T08:00:32.866Z,73.45
2019-05-07T08:03:02.997Z,73.19
2019-05-07T08:05:32.621Z,75.47
2019-05-07T08:08:02.370Z,68.86
2019-05-07T08:10:32.658Z,69.64
2019-05-07T08:13:02.292Z,68.01
2019-05-07T08:15:33.047Z,67.42
2019-05-07T08:18:02.948Z,66.95
2019-05-07T08:20:32.834Z,70.41
2019-05-07T08:23:02.895Z,64.82
2019-05-07T08:25:34.024Z,65.72
2019-05-07T08:28:03.358Z,67.89
2019-05-07T08:30:33.066Z,64.82
2019-05-07T08:33:04.056Z,66.79
2019-05-07T08:35:34.965Z,65.59
2019-05-07T08:38:04.304Z,64.43
2019-05-07T08:40:33.707Z,59.98
2019-05-07T08:43:03.360Z,60.09
2019-05-07T08:45:52.239Z,60.36
2019-05-07T08:48:34.392Z,60.90
2019-05-07T08:51:03.723Z,60.12
2019-05-07T08:53:33.062Z,59.19
2019-05-07T08:56:03.281Z,60.74
2019-05-07T08:58:32.617Z,59.14
2019-05-07T09:01:03.114Z,58.08
2019-05-07T09:03:44.793Z,58.94
2019-05-07T09:06:14.601Z,60.46
2019-05-07T09:08:43.910Z,60.46
2019-05-07T09:11:13.490Z,62.92
2019-05-07T09:13:42.870Z,59.46
2019-05-07T09:16:12.885Z,59.00
2019-05-07T09:18:42.903Z,61.33
2019-05-07T09:21:12.810Z,60.25
2019-05-07T09:23:42.497Z,60.20
2019-05-07T09:26:13.617Z,58.03
2019-05-07T09:28:47.839Z,58.67
2019-05-07T09:31:19.076Z,54.89
2019-05-07T09:33:52.124Z,56.33
2019-05-07T09:36:22.885Z,55.40
2019-05-07T09:38:56.767Z,53.85
2019-05-07T09:41:28.669Z,56.66
2019-05-07T09:43:58.796Z,58.04
2019-05-07T09:46:28.273Z,54.96
2019-05-07T09:48:57.611Z,54.43
2019-05-07T09:51:26.873Z,53.90
2019-05-07T09:53:56.218Z,52.56
2019-05-07T09:56:25.547Z,50.15
2019-05-07T09:58:55.331Z,50.64
2019-05-07T10:01:24.693Z,50.88
2019-05-07T10:03:54.019Z,50.14
2019-05-07T10:06:23.439Z,47.39
2019-05-07T10:08:52.857Z,47.39
2019-05-07T10:11:39.161Z,45.84
2019-05-07T10:14:14.486Z,44.94
2019-05-07T10:16:48.042Z,50.43
2019-05-07T10:19:17.445Z,50.43
2019-05-07T10:21:46.841Z,46.87
2019-05-07T10:24:16.523Z,43.62
2019-05-07T10:26:46.388Z,46.62
2019-05-07T10:29:15.800Z,46.86
2019-05-07T10:31:45.406Z,45.83
2019-05-07T10:34:14.736Z,50.99
2019-05-07T10:36:44.101Z,50.79
2019-05-07T10:39:13.492Z,48.49
2019-05-07T10:41:42.892Z,49.88
2019-05-07T10:44:13.305Z,50.73
2019-05-07T10:47:01.989Z,52.47
2019-05-07T10:49:36.151Z,52.23
2019-05-07T10:52:05.552Z,48.98
2019-05-07T10:54:34.883Z,48.42
2019-05-07T10:57:04.230Z,52.10
2019-05-07T10:59:33.590Z,51.71
2019-05-07T11:04:45.856Z,49.99
2019-05-07T11:07:33.505Z,46.67
2019-05-07T11:13:29.788Z,46.17
2019-05-07T11:16:13.271Z,46.84
2019-05-07T11:21:42.723Z,42.76
2019-05-07T11:24:32.088Z,42.76
2019-05-07T11:27:22.541Z,44.53
2019-05-07T11:30:17.464Z,42.98
2019-05-07T11:32:46.880Z,42.98
2019-05-07T11:35:28.639Z,44.63
2019-05-07T11:38:18.816Z,43.85
2019-05-07T11:40:42.767Z,43.85
2019-05-07T11:43:40.419Z,46.24
2019-05-07T11:46:26.699Z,44.86
2019-05-07T11:49:15.156Z,44.86
2019-05-07T11:54:53.596Z,41.86
2019-05-07T11:57:22.934Z,45.56
2019-05-07T11:59:54.350Z,45.56
2019-05-07T12:02:23.374Z,44.41
2019-05-07T12:04:52.809Z,44.48
2019-05-07T12:07:22.455Z,44.48
2019-05-07T12:09:52.642Z,43.35
2019-05-07T12:12:22.278Z,42.70
2019-05-07T12:14:51.949Z,46.16
2019-05-07T12:17:22.376Z,45.14
2019-05-07T12:19:52.702Z,42.13
2019-05-07T12:22:42.320Z,41.75
2019-05-07T12:25:12.151Z,41.75
2019-05-07T12:27:41.660Z,41.06
2019-05-07T12:30:12.987Z,41.71
2019-05-07T12:33:02.348Z,40.09
2019-05-07T12:35:31.837Z,40.24
2019-05-07T12:38:02.058Z,42.09
2019-05-07T12:40:32.586Z,42.43
2019-05-07T12:43:02.135Z,40.82
2019-05-07T12:45:31.489Z,43.25
2019-05-07T12:48:02.384Z,42.27
2019-05-07T12:50:32.356Z,43.50
2019-05-07T12:53:12.603Z,43.50
2019-05-07T12:55:52.619Z,39.88
2019-05-07T12:58:22.021Z,40.00
2019-05-07T13:00:53.078Z,39.88
2019-05-07T13:03:42.806Z,39.88
2019-05-07T13:06:12.252Z,40.85
2019-05-07T13:08:42.075Z,40.17
2019-05-07T13:11:13.247Z,41.48
2019-05-07T13:13:42.644Z,39.33
2019-05-07T13:16:12.796Z,41.90
2019-05-07T13:18:42.398Z,39.93
2019-05-07T13:21:12.038Z,41.71
2019-05-07T13:23:42.151Z,41.71
2019-05-07T13:26:11.966Z,43.12
2019-05-07T13:28:41.987Z,41.98
2019-05-07T13:31:12.610Z,43.74
2019-05-07T13:33:44.012Z,42.86
2019-05-07T13:36:13.912Z,42.86
2019-05-07T13:38:47.675Z,44.17
2019-05-07T13:41:18.814Z,43.19
2019-05-07T13:44:05.380Z,43.19
2019-05-07T13:46:39.112Z,43.65
2019-05-07T13:49:08.788Z,44.97
2019-05-07T13:51:38.756Z,44.51
2019-05-07T13:54:08.173Z,45.11
2019-05-07T13:56:37.648Z,44.64
2019-05-07T13:59:07.316Z,42.51
2019-05-07T14:01:41.048Z,40.29
2019-05-07T14:04:12.746Z,41.76
2019-05-07T14:06:42.987Z,41.52
2019-05-07T14:09:15.547Z,41.22
2019-05-07T14:11:45.058Z,43.98
2019-05-07T14:14:14.379Z,43.98
2019-05-07T14:16:44.996Z,43.03
2019-05-07T14:19:14.546Z,43.81
2019-05-07T14:21:43.952Z,43.81
2019-05-07T14:24:14.892Z,42.46
2019-05-07T14:26:44.279Z,42.31
2019-05-07T14:29:13.632Z,41.30
2019-05-07T14:31:42.976Z,41.30
2019-05-07T14:34:13.955Z,41.44
2019-05-07T14:36:45.000Z,41.44
2019-05-07T14:39:14.368Z,40.10
2019-05-07T14:41:43.699Z,40.10
2019-05-07T14:44:14.689Z,40.59
2019-05-07T14:46:50.866Z,40.46
2019-05-07T14:49:15.413Z,39.78
2019-05-07T14:51:44.886Z,38.92
2019-05-07T14:54:14.470Z,38.64
2019-05-07T14:56:43.882Z,38.64
2019-05-07T14:59:13.366Z,40.44
2019-05-07T15:01:43.058Z,39.24
2019-05-07T15:04:12.939Z,39.61
2019-05-07T15:06:42.402Z,39.61
2019-05-07T15:09:12.212Z,42.21
2019-05-07T15:11:42.533Z,42.56
2019-05-07T15:14:12.220Z,41.98
2019-05-07T15:16:42.626Z,40.34
2019-05-07T15:19:12.594Z,39.71
2019-05-07T15:21:42.765Z,40.39
2019-05-07T15:24:14.301Z,39.71
2019-05-07T15:26:43.711Z,39.71
2019-05-07T15:29:14.781Z,42.46
2019-05-07T15:32:00.778Z,39.09
2019-05-07T15:34:30.113Z,40.06
2019-05-07T15:37:01.556Z,40.56
2019-05-07T15:39:32.638Z,41.36
2019-05-07T15:42:02.253Z,40.45
2019-05-07T15:44:31.681Z,41.73
2019-05-07T15:47:02.716Z,39.81
2019-05-07T15:49:32.348Z,39.62
2019-05-07T15:52:03.383Z,42.53
2019-05-07T15:54:32.984Z,39.33
2019-05-07T15:57:03.985Z,41.52
2019-05-07T15:59:33.295Z,41.42
2019-05-07T16:02:04.277Z,42.16
2019-05-07T16:04:33.688Z,40.25
2019-05-07T16:07:05.130Z,38.89
2019-05-07T16:09:43.540Z,40.51
2019-05-07T16:12:14.646Z,38.78
2019-05-07T16:14:43.996Z,39.27
2019-05-07T16:17:14.999Z,39.67
2019-05-07T16:19:44.339Z,40.27
2019-05-07T16:22:15.818Z,41.04
2019-05-07T16:24:45.172Z,41.85
2019-05-07T16:27:14.502Z,41.29
2019-05-07T16:29:43.843Z,39.96
2019-05-07T16:32:13.180Z,41.20
2019-05-07T16:34:43.029Z,40.84
2019-05-07T16:37:12.453Z,39.38
2019-05-07T16:39:42.235Z,39.46
2019-05-07T16:42:11.628Z,40.79
2019-05-07T16:44:41.740Z,40.23
2019-05-07T16:47:12.183Z,41.70
2019-05-07T16:49:42.490Z,38.97
2019-05-07T16:52:12.143Z,42.39
2019-05-07T16:54:44.884Z,43.73
2019-05-07T16:57:31.793Z,42.80
2019-05-07T17:00:02.849Z,41.88
2019-05-07T17:02:37.095Z,40.97
2019-05-07T17:05:09.408Z,42.36
2019-05-07T17:07:42.259Z,42.63
2019-05-07T17:10:11.816Z,43.25
2019-05-07T17:12:42.730Z,46.44
2019-05-07T17:15:12.468Z,44.02
2019-05-07T17:17:42.804Z,45.37
2019-05-07T17:20:12.830Z,46.26
2019-05-07T17:22:42.726Z,45.55
2019-05-07T17:25:30.122Z,45.55
2019-05-07T17:27:59.518Z,47.84
2019-05-07T17:30:28.879Z,47.96
2019-05-07T17:32:58.425Z,47.36
2019-05-07T17:35:28.039Z,48.35
2019-05-07T17:38:06.488Z,48.35
2019-05-07T17:40:28.511Z,45.67
2019-05-07T17:42:57.870Z,48.44
2019-05-07T17:45:27.202Z,48.44
2019-05-07T17:47:56.614Z,47.33
2019-05-07T17:50:27.590Z,47.72
2019-05-07T17:52:56.929Z,49.89
2019-05-07T17:55:26.277Z,49.89
2019-05-07T17:57:55.607Z,50.51
2019-05-07T18:00:25.075Z,50.07
2019-05-07T18:03:13.114Z,48.41
2019-05-07T18:05:42.640Z,48.41
2019-05-07T18:08:12.714Z,50.68
2019-05-07T18:10:42.504Z,49.84
2019-05-07T18:13:12.025Z,50.03
2019-05-07T18:15:42.791Z,51.10
2019-05-07T18:18:12.936Z,50.79
2019-05-07T18:20:42.379Z,49.83
2019-05-07T18:23:16.647Z,50.00
2019-05-07T18:25:42.994Z,51.00
2019-05-07T18:28:12.893Z,49.47
2019-05-07T18:30:42.229Z,51.82
2019-05-07T18:33:16.567Z,50.98
2019-05-07T18:35:47.543Z,49.64
2019-05-07T18:38:16.878Z,51.90
2019-05-07T18:40:46.635Z,51.68
2019-05-07T18:43:15.968Z,53.17
2019-05-07T18:45:45.316Z,52.50
2019-05-07T18:48:14.647Z,52.82
2019-05-07T18:50:44.021Z,53.93
2019-05-07T18:53:18.099Z,53.77
2019-05-07T18:55:51.603Z,53.77
2019-05-07T18:58:22.607Z,55.28
2019-05-07T19:00:54.905Z,56.45
2019-05-07T19:03:28.799Z,54.42
2019-05-07T19:06:02.884Z,54.28
2019-05-07T19:08:35.725Z,55.48
2019-05-07T19:11:05.983Z,56.00
2019-05-07T19:13:37.561Z,54.16
2019-05-07T19:16:07.824Z,56.62
2019-05-07T19:18:37.170Z,55.58
2019-05-07T19:21:06.949Z,56.58
2019-05-07T19:23:36.335Z,57.82
2019-05-07T19:26:06.437Z,59.11
2019-05-07T19:28:36.252Z,57.67
2019-05-07T19:31:05.905Z,57.83
2019-05-07T19:33:35.316Z,61.04
2019-05-07T19:36:04.766Z,59.45
2019-05-07T19:38:34.092Z,60.01
2019-05-07T19:41:03.466Z,61.00
2019-05-07T19:43:35.974Z,57.92
2019-05-07T19:46:03.844Z,59.44
2019-05-07T19:48:33.183Z,56.77
2019-05-07T19:51:03.049Z,54.41
2019-05-07T19:53:32.821Z,55.24
2019-05-07T19:56:04.170Z,56.71
2019-05-07T19:58:34.023Z,57.88
2019-05-07T20:01:04.705Z,57.20
2019-05-07T20:03:34.104Z,57.28
2019-05-07T20:06:04.575Z,57.18
2019-05-07T20:08:34.057Z,60.00
2019-05-07T20:11:05.036Z,58.88
2019-05-07T20:13:34.374Z,60.12
2019-05-07T20:16:14.181Z,61.46
2019-05-07T20:18:43.523Z,59.64
2019-05-07T20:21:12.912Z,58.48
2019-05-07T20:23:43.235Z,58.00
2019-05-07T20:26:12.860Z,59.96
2019-05-07T20:28:43.717Z,59.91
2019-05-07T20:31:13.351Z,60.52
2019-05-07T20:33:42.665Z,58.87
2019-05-07T20:36:12.069Z,59.54
2019-05-07T20:38:42.739Z,60.55
2019-05-07T20:41:13.690Z,63.34
2019-05-07T20:43:43.273Z,66.61
2019-05-07T20:46:12.604Z,69.24
2019-05-07T20:48:42.467Z,68.94
2019-05-07T20:51:12.527Z,72.70
2019-05-07T20:54:00.454Z,73.15
2019-05-07T20:56:34.176Z,72.21
2019-05-07T20:59:03.853Z,74.16
2019-05-07T21:01:33.213Z,74.93
2019-05-07T21:04:02.541Z,73.99
2019-05-07T21:06:32.424Z,75.65
2019-05-07T21:09:01.874Z,76.23
2019-05-07T21:11:32.371Z,73.45
2019-05-07T21:14:03.252Z,77.38
2019-05-07T21:16:33.171Z,78.73
2019-05-07T21:19:02.521Z,79.68
2019-05-07T21:21:32.765Z,76.77
2019-05-07T21:24:02.356Z,79.35
2019-05-07T21:26:32.713Z,81.23
2019-05-07T21:29:02.980Z,81.93
2019-05-07T21:31:32.605Z,83.37
2019-05-07T21:34:03.114Z,84.47
2019-05-07T21:36:32.657Z,83.89
2019-05-07T21:39:02.513Z,80.09
2019-05-07T21:41:33.504Z,81.49
2019-05-07T21:44:03.335Z,84.74
2019-05-07T21:46:33.087Z,84.99
2019-05-07T21:49:02.740Z,86.15
2019-05-07T21:51:32.097Z,86.19
2019-05-07T21:54:03.747Z,85.05
2019-05-07T21:56:54.536Z,85.97
2019-05-07T21:59:35.769Z,83.54
2019-05-07T22:02:08.279Z,82.37
2019-05-07T22:04:37.607Z,82.46
2019-05-07T22:07:06.952Z,83.30
2019-05-07T22:09:36.287Z,84.09
2019-05-07T22:12:05.700Z,84.39
2019-05-07T22:14:35.070Z,82.07
2019-05-07T22:17:05.413Z,84.22
2019-05-07T22:19:34.753Z,85.85
2019-05-07T22:22:04.147Z,85.80
2019-05-07T22:24:33.477Z,84.36
2019-05-07T22:27:04.207Z,84.51
2019-05-07T22:29:33.723Z,83.26
2019-05-07T22:32:16.766Z,83.31
2019-05-07T22:34:52.058Z,81.88
2019-05-07T22:37:22.078Z,83.29
2019-05-07T22:39:51.448Z,83.02
2019-05-07T22:42:22.374Z,81.01
2019-05-07T22:44:51.803Z,80.30
2019-05-07T22:47:22.538Z,79.25
2019-05-07T22:49:53.639Z,82.15
2019-05-07T22:52:23.296Z,79.83
2019-05-07T22:54:52.622Z,76.55
2019-05-07T22:57:35.583Z,74.96
2019-05-07T23:00:08.293Z,77.27
2019-05-07T23:02:37.628Z,75.73
2019-05-07T23:05:07.483Z,76.83
2019-05-07T23:07:36.828Z,75.11
2019-05-07T23:10:06.394Z,75.36
2019-05-07T23:12:35.722Z,74.33
2019-05-07T23:15:07.095Z,77.29
2019-05-07T23:17:36.353Z,75.40
2019-05-07T23:20:06.739Z,79.62
2019-05-07T23:22:36.061Z,77.63
2019-05-07T23:25:06.438Z,77.37
2019-05-07T23:27:35.769Z,78.34
2019-05-07T23:30:05.952Z,78.41
2019-05-07T23:32:35.277Z,82.18
2019-05-07T23:35:05.948Z,80.93
2019-05-07T23:37:35.270Z,79.88
2019-05-07T23:40:09.229Z,82.73
2019-05-07T23:42:42.401Z,81.96
2019-05-07T23:45:12.633Z,82.62
2019-05-07T23:47:44.454Z,79.66
2019-05-07T23:50:13.099Z,80.89
2019-05-07T23:52:44.161Z,80.22
2019-05-07T23:55:13.509Z,80.13
2019-05-07T23:57:43.124Z,80.13
